Time;durP1;ratioP1;P1;durP2;ratioP2;P2;SDS_P1;SDS_P2;PMS_P1;PMS_P2;Temp;Humidity;BMP_temperature;BMP_pressure;BME280_temperature;BME280_humidity;BME280_pressure;Samples;Min_cycle;Max_cycle;Signal;HPM_P1;HPM_P2
2021/08/01 00:00:05;;;;;;;8.00;6.57;;;26.40;50.40;;;;;;5029209;28;20699;-46
2021/08/01 00:02:31;;;;;;;7.73;5.83;;;26.30;50.20;;;;;;5022873;28;20260;-46
2021/08/01 00:04:57;;;;;;;5.73;5.23;;;26.30;50.50;;;;;;5025414;28;20437;-46
2021/08/01 00:07:23;;;;;;;7.83;5.70;;;26.30;50.50;;;;;;5031016;28;20193;-46
2021/08/01 00:09:48;;;;;;;5.53;4.97;;;26.20;50.40;;;;;;5031688;28;20543;-46
2021/08/01 00:12:15;;;;;;;6.87;5.47;;;26.20;50.60;;;;;;5029140;28;20197;-48
2021/08/01 00:14:41;;;;;;;4.90;4.50;;;26.10;50.80;;;;;;5031249;28;20229;-45
2021/08/01 00:17:06;;;;;;;6.17;5.13;;;26.20;51.20;;;;;;5026712;28;20464;-45
2021/08/01 00:19:32;;;;;;;7.43;5.50;;;26.10;51.30;;;;;;5037765;28;20228;-45
2021/08/01 00:21:57;;;;;;;5.80;5.30;;;26.10;51.70;;;;;;5029059;28;20637;-45
2021/08/01 00:24:23;;;;;;;6.83;5.40;;;26.10;52.40;;;;;;5030712;28;20193;-47
2021/08/01 00:26:49;;;;;;;6.60;5.93;;;26.10;52.70;;;;;;5022727;28;20190;-49
2021/08/01 00:29:15;;;;;;;5.10;4.60;;;26.10;52.80;;;;;;5023495;28;20193;-45
2021/08/01 00:31:40;;;;;;;6.67;5.03;;;26.00;52.90;;;;;;5022698;28;20645;-45
2021/08/01 00:34:06;;;;;;;5.70;5.10;;;26.00;52.90;;;;;;5027282;28;20506;-46
2021/08/01 00:36:32;;;;;;;10.23;5.17;;;26.00;53.00;;;;;;5026736;28;20189;-45
2021/08/01 00:38:57;;;;;;;5.13;4.63;;;25.90;53.20;;;;;;5023719;28;20200;-46
2021/08/01 00:41:23;;;;;;;4.50;4.10;;;25.80;53.70;;;;;;5023941;28;20239;-45
2021/08/01 00:43:48;;;;;;;5.97;5.47;;;25.70;54.10;;;;;;5031796;28;20189;-46
2021/08/01 00:46:16;;;;;;;5.80;4.40;;;25.60;54.20;;;;;;5023152;28;20197;-46
2021/08/01 00:48:42;;;;;;;9.07;4.90;;;25.60;54.10;;;;;;5025237;28;20208;-45
2021/08/01 00:51:08;;;;;;;6.37;4.73;;;25.60;54.00;;;;;;5028019;28;20436;-46
2021/08/01 00:53:34;;;;;;;6.57;4.83;;;25.60;54.30;;;;;;5030857;28;20189;-45
2021/08/01 00:55:59;;;;;;;4.50;3.93;;;25.60;54.40;;;;;;5028249;28;20221;-45
2021/08/01 00:58:25;;;;;;;6.00;5.13;;;25.60;54.40;;;;;;5019912;28;20563;-46
2021/08/01 01:01:10;;;;;;;5.33;4.83;;;25.60;54.50;;;;;;5027142;28;20249;-45
2021/08/01 01:03:53;;;;;;;6.77;5.50;;;25.60;54.60;;;;;;5028012;28;20208;-47
2021/08/01 01:06:42;;;;;;;5.83;5.00;;;25.60;54.60;;;;;;5023596;28;20487;-45
2021/08/01 01:09:31;;;;;;;5.60;4.87;;;25.50;54.60;;;;;;5020911;28;20809;-45
2021/08/01 01:12:02;;;;;;;5.03;3.87;;;25.50;54.60;;;;;;5018773;28;20790;-45
2021/08/01 01:14:29;;;;;;;5.80;5.20;;;25.40;54.60;;;;;;5025968;28;20444;-45
2021/08/01 01:17:02;;;;;;;5.37;4.87;;;25.40;54.70;;;;;;5029905;28;20440;-45
2021/08/01 01:19:49;;;;;;;5.10;4.70;;;25.30;54.70;;;;;;5030147;28;20479;-45
2021/08/01 01:22:38;;;;;;;6.47;5.77;;;25.30;54.90;;;;;;5027340;28;20451;-44
2021/08/01 01:25:14;;;;;;;6.90;4.90;;;25.20;55.20;;;;;;5026235;28;20440;-48
2021/08/01 01:27:46;;;;;;;5.70;5.03;;;25.10;55.50;;;;;;5026985;28;20458;-46
2021/08/01 01:30:13;;;;;;;5.77;5.00;;;25.20;55.60;;;;;;5024937;28;20977;-45
2021/08/01 01:32:46;;;;;;;4.47;3.90;;;25.00;55.50;;;;;;5027373;28;20874;-47
2021/08/01 01:35:14;;;;;;;6.30;5.00;;;24.90;55.80;;;;;;5029128;28;20436;-45
2021/08/01 01:37:41;;;;;;;6.27;5.13;;;24.90;56.20;;;;;;5025266;28;20590;-44
2021/08/01 01:40:08;;;;;;;5.40;4.90;;;24.80;56.30;;;;;;5027756;28;20499;-45
2021/08/01 01:42:36;;;;;;;4.80;4.13;;;24.80;56.40;;;;;;5024397;28;20517;-45
2021/08/01 01:45:02;;;;;;;5.00;4.60;;;24.90;56.40;;;;;;5025900;28;20492;-45
2021/08/01 01:47:30;;;;;;;4.93;4.43;;;25.00;56.20;;;;;;5024056;28;20939;-45
2021/08/01 01:49:58;;;;;;;4.57;4.17;;;24.90;56.10;;;;;;5027764;28;20808;-44
2021/08/01 01:52:25;;;;;;;5.23;4.43;;;24.80;56.30;;;;;;5023022;28;20451;-45
2021/08/01 01:54:52;;;;;;;6.00;4.47;;;24.80;56.50;;;;;;5022282;28;20550;-44
2021/08/01 01:57:18;;;;;;;5.47;4.90;;;24.80;56.50;;;;;;5027586;28;20487;-46
2021/08/01 01:59:44;;;;;;;4.83;4.43;;;24.80;56.30;;;;;;5028904;28;20514;-44
2021/08/01 02:02:10;;;;;;;5.33;4.77;;;24.80;56.50;;;;;;5025673;28;20189;-45
2021/08/01 02:04:37;;;;;;;5.90;5.40;;;24.80;56.50;;;;;;5019384;28;20436;-46
2021/08/01 02:07:04;;;;;;;5.43;4.70;;;24.80;56.50;;;;;;5024181;28;20310;-45
2021/08/01 02:09:49;;;;;;;4.57;3.60;;;24.70;56.70;;;;;;5029250;28;20447;-45
2021/08/01 02:12:31;;;;;;;4.00;3.70;;;24.50;57.00;;;;;;5028683;28;20440;-44
2021/08/01 02:15:02;;;;;;;4.43;4.10;;;24.40;57.20;;;;;;5028735;28;20487;-45
2021/08/01 02:17:50;;;;;;;4.93;3.90;;;24.10;57.50;;;;;;5025307;28;20475;-45
2021/08/01 02:20:20;;;;;;;4.80;4.30;;;23.60;58.30;;;;;;5034124;28;21006;-49
2021/08/01 02:22:46;;;;;;;4.23;3.90;;;23.50;59.10;;;;;;5017102;28;20468;-45
2021/08/01 02:25:15;;;;;;;5.87;3.40;;;23.40;59.60;;;;;;5028899;28;20452;-45
2021/08/01 02:27:42;;;;;;;7.37;4.20;;;23.40;59.40;;;;;;5029056;28;20440;-46
2021/08/01 02:30:09;;;;;;;4.20;3.90;;;23.50;59.50;;;;;;5029706;28;20443;-46
2021/08/01 02:32:35;;;;;;;4.90;4.50;;;23.70;59.00;;;;;;5032822;28;20954;-47
2021/08/01 02:35:03;;;;;;;4.90;3.90;;;23.90;58.60;;;;;;5029051;28;20440;-45
2021/08/01 02:37:29;;;;;;;5.63;4.93;;;24.10;58.50;;;;;;5030495;28;21216;-45
2021/08/01 02:39:55;;;;;;;7.60;4.30;;;24.20;58.20;;;;;;5033487;28;20574;-46
2021/08/01 02:42:22;;;;;;;7.00;5.73;;;24.20;58.10;;;;;;5031669;28;20216;-46
2021/08/01 02:44:50;;;;;;;4.83;4.30;;;24.00;57.90;;;;;;5032647;28;20974;-49
2021/08/01 02:47:18;;;;;;;5.40;4.90;;;24.00;58.60;;;;;;5027253;28;20460;-47
2021/08/01 02:49:46;;;;;;;7.43;4.33;;;24.10;58.40;;;;;;5030856;28;20505;-45
2021/08/01 02:52:15;;;;;;;4.80;4.30;;;24.20;58.10;;;;;;5028065;28;20441;-46
2021/08/01 02:54:43;;;;;;;5.73;4.43;;;24.30;57.80;;;;;;5032860;28;20447;-45
2021/08/01 02:57:12;;;;;;;5.60;4.27;;;24.40;57.80;;;;;;5026830;28;20506;-46
2021/08/01 02:59:40;;;;;;;3.97;3.57;;;24.50;57.70;;;;;;5025668;28;21391;-45
2021/08/01 03:02:09;;;;;;;6.23;4.53;;;24.50;57.60;;;;;;5030976;28;20547;-47
2021/08/01 03:04:39;;;;;;;6.13;4.30;;;24.50;57.10;;;;;;5031990;28;20443;-45
2021/08/01 03:07:10;;;;;;;6.13;5.50;;;24.60;57.20;;;;;;5032271;28;20444;-45
2021/08/01 03:09:36;;;;;;;8.00;4.67;;;24.70;57.20;;;;;;5028451;28;20470;-45
2021/08/01 03:12:12;;;;;;;3.80;3.50;;;24.60;57.10;;;;;;5032879;28;20452;-45
2021/08/01 03:14:38;;;;;;;7.43;3.67;;;24.70;57.10;;;;;;5032072;28;20770;-47
2021/08/01 03:17:04;;;;;;;7.00;4.47;;;24.70;57.00;;;;;;5026046;28;20817;-46
2021/08/01 03:19:35;;;;;;;4.73;4.33;;;24.70;56.90;;;;;;5027746;28;20448;-45
2021/08/01 03:22:01;;;;;;;4.83;4.30;;;24.70;56.80;;;;;;5031516;28;20445;-45
2021/08/01 03:24:27;;;;;;;6.97;3.93;;;24.70;56.70;;;;;;5029908;28;20538;-45
2021/08/01 03:26:52;;;;;;;5.43;4.27;;;24.70;57.00;;;;;;5028907;28;20288;-48
2021/08/01 03:29:18;;;;;;;5.17;4.00;;;24.70;56.80;;;;;;5024568;28;20198;-46
2021/08/01 03:31:43;;;;;;;5.13;4.73;;;24.70;56.80;;;;;;5028415;28;20217;-45
2021/08/01 03:34:09;;;;;;;7.20;3.97;;;24.70;57.00;;;;;;5025938;28;20197;-45
2021/08/01 03:36:35;;;;;;;7.13;3.77;;;24.60;57.20;;;;;;5030390;28;20189;-46
2021/08/01 03:39:01;;;;;;;3.80;3.50;;;24.70;57.40;;;;;;5029421;28;20201;-45
2021/08/01 03:41:30;;;;;;;5.60;4.70;;;24.60;57.20;;;;;;5030215;28;20491;-45
2021/08/01 03:43:56;;;;;;;5.50;4.60;;;24.70;57.40;;;;;;5030570;28;20464;-47
2021/08/01 03:46:21;;;;;;;6.37;4.10;;;24.60;57.20;;;;;;5029736;28;20770;-47
2021/08/01 03:48:47;;;;;;;6.70;3.73;;;24.60;57.40;;;;;;5029123;28;20189;-46
2021/08/01 03:51:13;;;;;;;4.10;3.77;;;24.60;57.20;;;;;;5027333;28;20280;-46
2021/08/01 03:53:38;;;;;;;5.63;4.07;;;24.60;57.20;;;;;;5032930;28;20198;-46
2021/08/01 03:56:04;;;;;;;3.83;3.53;;;24.60;56.80;;;;;;5031544;28;20193;-45
2021/08/01 03:58:30;;;;;;;8.67;4.00;;;24.50;57.00;;;;;;5024453;28;20194;-45
2021/08/01 04:00:56;;;;;;;3.83;3.50;;;24.50;57.10;;;;;;5028185;28;20275;-48
2021/08/01 04:03:21;;;;;;;4.10;3.77;;;24.50;57.10;;;;;;5025099;28;20436;-46
2021/08/01 04:05:47;;;;;;;7.53;4.43;;;24.50;57.30;;;;;;5027820;28;20197;-45
2021/08/01 04:08:13;;;;;;;7.17;3.90;;;24.40;57.60;;;;;;5025561;28;20193;-46
2021/08/01 04:10:38;;;;;;;6.40;3.80;;;24.40;57.90;;;;;;5024340;28;20247;-45
2021/08/01 04:13:04;;;;;;;18.00;4.20;;;24.30;57.60;;;;;;5032066;28;20193;-51
2021/08/01 04:15:30;;;;;;;4.47;4.00;;;24.30;57.80;;;;;;5025580;28;20243;-46
2021/08/01 04:17:55;;;;;;;4.47;3.40;;;24.40;57.40;;;;;;5027132;28;20244;-45
2021/08/01 04:20:21;;;;;;;5.83;4.07;;;24.30;57.60;;;;;;5031138;28;20233;-46
2021/08/01 04:22:51;;;;;;;4.00;3.70;;;24.30;57.50;;;;;;5031338;28;20208;-47
2021/08/01 04:25:17;;;;;;;4.33;3.90;;;24.10;57.70;;;;;;5026925;28;20201;-45
2021/08/01 04:27:43;;;;;;;6.37;3.83;;;24.00;57.90;;;;;;5024617;28;20447;-46
2021/08/01 04:30:09;;;;;;;5.97;4.67;;;23.90;58.20;;;;;;5025196;28;20706;-45
2021/08/01 04:32:34;;;;;;;4.50;4.10;;;24.00;58.40;;;;;;5031473;28;20196;-46
2021/08/01 04:35:00;;;;;;;13.10;4.50;;;24.00;58.60;;;;;;5029284;28;20527;-45
2021/08/01 04:37:26;;;;;;;4.33;3.93;;;24.00;58.40;;;;;;5029525;28;20211;-46
2021/08/01 04:39:52;;;;;;;4.57;4.17;;;23.90;58.40;;;;;;5029951;28;20217;-46
2021/08/01 04:42:18;;;;;;;4.13;3.73;;;23.90;58.60;;;;;;5027961;28;20744;-46
2021/08/01 04:44:43;;;;;;;4.03;3.63;;;23.90;58.60;;;;;;5032417;28;20571;-44
2021/08/01 04:47:12;;;;;;;3.77;3.47;;;23.90;59.20;;;;;;5026821;28;20189;-46
2021/08/01 04:49:38;;;;;;;4.33;3.93;;;23.70;58.30;;;;;;5035327;28;20247;-45
2021/08/01 04:52:04;;;;;;;5.40;3.73;;;23.80;58.80;;;;;;5029352;28;20440;-46
2021/08/01 04:54:30;;;;;;;2.93;2.70;;;23.90;58.60;;;;;;5026836;28;20456;-45
2021/08/01 04:56:55;;;;;;;3.23;3.03;;;23.90;58.50;;;;;;5028559;28;20260;-45
2021/08/01 04:59:21;;;;;;;3.87;3.27;;;24.10;58.20;;;;;;5026995;28;20189;-46
2021/08/01 05:01:46;;;;;;;3.60;3.33;;;24.10;57.80;;;;;;5027904;28;20233;-46
2021/08/01 05:04:13;;;;;;;3.90;3.60;;;24.20;57.80;;;;;;5030359;28;20204;-45
2021/08/01 05:06:38;;;;;;;3.80;3.50;;;24.30;57.60;;;;;;5026797;28;20196;-46
2021/08/01 05:09:04;;;;;;;4.87;3.63;;;24.30;57.50;;;;;;5024900;28;20436;-46
2021/08/01 05:11:29;;;;;;;13.93;3.17;;;24.40;57.40;;;;;;5029798;28;20200;-45
2021/08/01 05:13:55;;;;;;;3.23;2.93;;;24.40;57.50;;;;;;5031840;28;20201;-45
2021/08/01 05:16:21;;;;;;;3.80;3.50;;;24.40;57.40;;;;;;5024252;28;20232;-46
2021/08/01 05:18:46;;;;;;;4.73;3.43;;;24.50;57.20;;;;;;5028023;28;20244;-45
2021/08/01 05:21:12;;;;;;;3.97;2.90;;;24.40;56.90;;;;;;5028181;28;20668;-46
2021/08/01 05:23:38;;;;;;;4.17;3.60;;;24.30;57.00;;;;;;5016918;28;20262;-46
2021/08/01 05:26:03;;;;;;;3.57;3.27;;;24.10;56.80;;;;;;5025520;28;20604;-46
2021/08/01 05:28:30;;;;;;;3.47;3.17;;;24.00;57.40;;;;;;5026292;28;20204;-45
2021/08/01 05:30:55;;;;;;;4.00;3.13;;;23.90;58.00;;;;;;5026815;28;20197;-45
2021/08/01 05:33:21;;;;;;;5.30;3.57;;;23.90;57.70;;;;;;5028721;28;20573;-45
2021/08/01 05:35:46;;;;;;;3.63;3.33;;;23.90;57.80;;;;;;5027703;28;20202;-45
2021/08/01 05:38:12;;;;;;;3.50;3.07;;;23.90;58.00;;;;;;5028380;28;20213;-44
2021/08/01 05:40:43;;;;;;;4.53;4.13;;;23.80;58.20;;;;;;5029472;28;20229;-45
2021/08/01 05:43:08;;;;;;;3.07;2.87;;;23.70;58.40;;;;;;5030402;28;20251;-45
2021/08/01 05:45:34;;;;;;;3.90;3.70;;;23.70;58.80;;;;;;5029778;28;20440;-46
2021/08/01 05:47:59;;;;;;;4.00;3.60;;;23.50;58.90;;;;;;5029711;28;20205;-45
2021/08/01 05:50:25;;;;;;;4.87;3.73;;;23.20;59.40;;;;;;5025578;28;20232;-46
2021/08/01 05:52:50;;;;;;;4.10;3.30;;;23.00;60.60;;;;;;5030475;28;20200;-45
2021/08/01 05:55:16;;;;;;;3.50;3.20;;;22.90;61.00;;;;;;5031030;28;20673;-44
2021/08/01 05:57:42;;;;;;;5.17;3.77;;;22.80;61.20;;;;;;5029320;28;20197;-44
2021/08/01 06:00:08;;;;;;;4.90;3.83;;;22.80;61.60;;;;;;5032566;28;20216;-48
2021/08/01 06:02:33;;;;;;;3.37;3.17;;;22.80;61.60;;;;;;5033827;28;20189;-45
2021/08/01 06:04:59;;;;;;;3.90;3.30;;;22.70;61.90;;;;;;5033198;28;20824;-45
2021/08/01 06:07:25;;;;;;;3.70;3.40;;;22.70;62.10;;;;;;5031921;28;20198;-45
2021/08/01 06:09:50;;;;;;;3.47;3.20;;;22.70;62.00;;;;;;5032827;28;20197;-49
2021/08/01 06:12:16;;;;;;;4.23;3.93;;;22.80;61.70;;;;;;5033832;28;20193;-45
2021/08/01 06:14:41;;;;;;;3.77;3.30;;;22.90;61.90;;;;;;5033786;28;20585;-45
2021/08/01 06:17:07;;;;;;;5.10;3.73;;;22.90;62.30;;;;;;5030411;28;20903;-47
2021/08/01 06:19:33;;;;;;;3.10;2.80;;;22.90;62.00;;;;;;5035654;28;20189;-45
2021/08/01 06:21:59;;;;;;;4.20;3.80;;;23.00;62.00;;;;;;5032291;28;20267;-45
2021/08/01 06:24:25;;;;;;;5.27;3.60;;;23.10;62.10;;;;;;5034006;28;20650;-46
2021/08/01 06:26:50;;;;;;;3.70;3.50;;;23.10;62.20;;;;;;5032985;28;20189;-45
2021/08/01 06:29:16;;;;;;;4.83;3.60;;;23.10;62.30;;;;;;5030959;28;20950;-46
2021/08/01 06:31:42;;;;;;;4.13;3.13;;;23.10;62.60;;;;;;5033543;28;20657;-45
2021/08/01 06:34:08;;;;;;;3.83;3.50;;;23.20;62.60;;;;;;5032867;28;20440;-47
2021/08/01 06:36:34;;;;;;;3.73;3.43;;;23.20;62.30;;;;;;5028895;28;20564;-49
2021/08/01 06:38:59;;;;;;;6.07;3.40;;;23.30;62.00;;;;;;5024324;28;20208;-47
2021/08/01 06:41:25;;;;;;;4.23;3.83;;;23.30;61.60;;;;;;5030674;28;20260;-49
2021/08/01 06:43:51;;;;;;;5.03;3.63;;;23.30;61.90;;;;;;5030765;28;20193;-45
2021/08/01 06:46:16;;;;;;;4.57;4.10;;;23.20;61.80;;;;;;5031708;28;20239;-46
2021/08/01 06:48:42;;;;;;;3.40;3.20;;;22.90;61.50;;;;;;5031085;28;20189;-45
2021/08/01 06:51:07;;;;;;;4.47;3.60;;;22.80;62.30;;;;;;5026233;28;20201;-46
2021/08/01 06:53:33;;;;;;;3.73;3.30;;;22.90;63.00;;;;;;5032700;28;20239;-47
2021/08/01 06:55:59;;;;;;;3.50;3.20;;;23.00;62.20;;;;;;5024223;28;20223;-47
2021/08/01 06:58:25;;;;;;;4.17;3.30;;;23.10;62.30;;;;;;5028783;28;20189;-48
2021/08/01 07:00:52;;;;;;;4.80;2.63;;;23.20;62.20;;;;;;5028892;28;20498;-46
2021/08/01 07:03:19;;;;;;;3.37;2.83;;;23.30;61.80;;;;;;5032026;28;20629;-49
2021/08/01 07:05:45;;;;;;;2.90;2.70;;;23.50;61.50;;;;;;5031722;28;20440;-46
2021/08/01 07:08:12;;;;;;;2.93;2.73;;;23.60;60.80;;;;;;5030038;28;20807;-48
2021/08/01 07:10:38;;;;;;;3.10;2.90;;;23.80;61.30;;;;;;5029812;28;20201;-46
2021/08/01 07:13:08;;;;;;;3.83;3.50;;;23.70;59.60;;;;;;5029662;28;20458;-50
2021/08/01 07:15:34;;;;;;;3.47;3.17;;;23.70;60.00;;;;;;5029769;28;20467;-48
2021/08/01 07:18:01;;;;;;;6.73;3.30;;;23.80;60.00;;;;;;5030445;28;20475;-45
2021/08/01 07:20:28;;;;;;;3.30;3.00;;;23.90;59.80;;;;;;5028673;28;20637;-47
2021/08/01 07:22:54;;;;;;;3.83;3.13;;;24.00;59.70;;;;;;5031051;28;20447;-46
2021/08/01 07:25:20;;;;;;;3.43;3.13;;;23.90;59.00;;;;;;5027451;28;20436;-44
2021/08/01 07:27:46;;;;;;;4.47;3.20;;;23.90;59.30;;;;;;5022644;28;20433;-46
2021/08/01 07:30:12;;;;;;;2.93;2.63;;;23.40;60.20;;;;;;5031870;28;21018;-49
2021/08/01 07:32:38;;;;;;;3.13;2.83;;;23.50;60.50;;;;;;5028914;28;20201;-47
2021/08/01 07:35:04;;;;;;;3.27;3.03;;;23.70;60.30;;;;;;5032074;28;20927;-45
2021/08/01 07:37:30;;;;;;;6.33;3.40;;;23.80;59.90;;;;;;5029151;28;20197;-46
2021/08/01 07:39:55;;;;;;;4.57;3.80;;;23.90;59.60;;;;;;5032234;28;20486;-46
2021/08/01 07:42:21;;;;;;;4.67;3.93;;;24.00;59.40;;;;;;5031062;28;20216;-45
2021/08/01 07:44:48;;;;;;;5.50;4.93;;;24.10;59.30;;;;;;5031922;28;20189;-47
2021/08/01 07:47:16;;;;;;;3.83;3.10;;;24.20;59.30;;;;;;5026324;28;20617;-45
2021/08/01 07:49:42;;;;;;;3.17;2.87;;;24.10;59.50;;;;;;5030926;28;20424;-45
2021/08/01 07:52:08;;;;;;;5.43;3.53;;;24.10;59.50;;;;;;5028424;28;20424;-46
2021/08/01 07:54:33;;;;;;;3.60;3.30;;;24.10;59.70;;;;;;5028522;28;20438;-47
2021/08/01 07:56:59;;;;;;;4.80;4.47;;;24.20;60.00;;;;;;5031202;28;20256;-48
2021/08/01 07:59:24;;;;;;;4.33;3.60;;;24.40;58.80;;;;;;5031411;28;20209;-44
2021/08/01 08:01:50;;;;;;;4.07;3.77;;;24.50;58.80;;;;;;5030221;28;20489;-45
2021/08/01 08:04:15;;;;;;;4.37;3.73;;;24.50;58.70;;;;;;5032448;28;20192;-47
2021/08/01 08:06:41;;;;;;;4.17;3.33;;;24.40;58.60;;;;;;5030607;28;20219;-46
2021/08/01 08:09:07;;;;;;;5.13;4.00;;;24.50;58.80;;;;;;5031939;28;20189;-45
2021/08/01 08:11:32;;;;;;;3.77;3.47;;;24.30;58.90;;;;;;5030192;28;20248;-45
2021/08/01 08:13:58;;;;;;;4.80;3.70;;;24.20;59.00;;;;;;5032675;28;20232;-50
2021/08/01 08:16:24;;;;;;;5.43;4.17;;;24.20;59.30;;;;;;5023804;28;20864;-45
2021/08/01 08:18:50;;;;;;;5.17;4.67;;;24.30;59.40;;;;;;5031041;28;20472;-47
2021/08/01 08:21:17;;;;;;;3.70;3.40;;;24.30;59.40;;;;;;5029718;28;20670;-46
2021/08/01 08:23:43;;;;;;;3.60;3.30;;;24.30;59.40;;;;;;5024466;28;20435;-47
2021/08/01 08:26:08;;;;;;;4.13;3.77;;;24.40;59.30;;;;;;5028683;28;20786;-45
2021/08/01 08:28:34;;;;;;;4.37;4.07;;;24.50;58.70;;;;;;5032529;28;20223;-45
2021/08/01 08:30:59;;;;;;;3.97;3.57;;;24.40;58.60;;;;;;5031044;28;20555;-46
2021/08/01 08:33:25;;;;;;;7.67;4.43;;;24.40;59.00;;;;;;5031889;28;20201;-47
2021/08/01 08:35:51;;;;;;;7.70;3.60;;;24.10;59.00;;;;;;5031454;28;20201;-45
2021/08/01 08:38:17;;;;;;;6.07;4.13;;;24.00;59.40;;;;;;5027830;28;20865;-45
2021/08/01 08:40:43;;;;;;;4.53;4.13;;;23.90;59.40;;;;;;5026620;28;20225;-51
2021/08/01 08:43:09;;;;;;;5.07;4.27;;;23.70;60.30;;;;;;5030246;28;20242;-45
2021/08/01 08:45:36;;;;;;;4.13;3.73;;;23.70;61.00;;;;;;5020254;28;20420;-44
2021/08/01 08:48:02;;;;;;;4.43;4.03;;;23.70;60.30;;;;;;5030128;28;20197;-45
2021/08/01 08:50:28;;;;;;;4.33;4.03;;;23.90;60.60;;;;;;5027928;28;20811;-44
2021/08/01 08:53:02;;;;;;;4.47;3.77;;;24.00;60.30;;;;;;5028581;28;20483;-45
2021/08/01 08:55:30;;;;;;;4.00;3.60;;;24.20;60.50;;;;;;5029544;28;20440;-45
2021/08/01 08:58:00;;;;;;;3.90;3.13;;;24.30;59.70;;;;;;5028963;28;20432;-44
2021/08/01 09:00:27;;;;;;;5.00;4.00;;;24.30;59.60;;;;;;5028866;28;20486;-45
2021/08/01 09:02:53;;;;;;;5.93;3.73;;;24.50;59.30;;;;;;5028848;28;20570;-46
2021/08/01 09:05:19;;;;;;;5.13;3.60;;;24.50;59.20;;;;;;5028930;28;20437;-45
2021/08/01 09:07:45;;;;;;;4.63;3.63;;;24.50;59.10;;;;;;5029610;28;20796;-46
2021/08/01 09:10:11;;;;;;;4.67;4.27;;;24.60;58.80;;;;;;5030889;28;20205;-45
2021/08/01 09:12:42;;;;;;;4.37;3.97;;;24.80;58.50;;;;;;5028447;28;20198;-45
2021/08/01 09:15:08;;;;;;;4.53;4.13;;;24.80;58.20;;;;;;5025552;28;20539;-45
2021/08/01 09:17:36;;;;;;;4.83;3.87;;;24.80;58.50;;;;;;5020319;28;20629;-48
2021/08/01 09:20:20;;;;;;;4.20;3.80;;;24.80;58.50;;;;;;5032415;28;21053;-50
2021/08/01 09:23:01;;;;;;;4.53;4.03;;;24.90;58.60;;;;;;5026779;28;20452;-45
2021/08/01 09:25:55;;;;;;;3.63;3.33;;;24.90;58.90;;;;;;5026419;28;20446;-44
2021/08/01 09:28:24;;;;;;;5.87;4.27;;;24.90;59.30;;;;;;5025512;28;20527;-46
2021/08/01 09:30:55;;;;;;;3.50;3.20;;;24.90;58.60;;;;;;5023713;28;20523;-48
2021/08/01 09:33:30;;;;;;;5.23;3.80;;;25.00;58.60;;;;;;5028857;28;20440;-44
2021/08/01 09:36:19;;;;;;;4.40;4.00;;;25.00;58.00;;;;;;5019118;28;20447;-47
2021/08/01 09:38:56;;;;;;;4.17;3.80;;;25.10;58.40;;;;;;5030190;28;20444;-50
2021/08/01 09:41:26;;;;;;;4.33;3.93;;;25.10;58.30;;;;;;5027922;28;20965;-45
2021/08/01 09:43:57;;;;;;;4.60;4.03;;;25.00;58.40;;;;;;5029132;28;20432;-46
2021/08/01 09:46:43;;;;;;;3.90;3.60;;;25.00;58.20;;;;;;5025564;28;20481;-45
2021/08/01 09:49:14;;;;;;;7.60;3.47;;;24.90;57.50;;;;;;5018436;28;20509;-45
2021/08/01 09:51:47;;;;;;;3.83;3.50;;;24.80;57.90;;;;;;5028815;28;20506;-46
2021/08/01 09:54:14;;;;;;;3.80;3.50;;;24.70;58.00;;;;;;5025737;28;20428;-46
2021/08/01 09:57:00;;;;;;;3.67;3.37;;;24.80;58.40;;;;;;5018611;28;20547;-45
2021/08/01 09:59:27;;;;;;;3.30;3.10;;;24.80;58.30;;;;;;5030064;28;20476;-44
2021/08/01 10:01:54;;;;;;;3.90;3.60;;;24.80;58.20;;;;;;5028392;28;20480;-45
2021/08/01 10:04:23;;;;;;;4.30;3.90;;;24.60;58.60;;;;;;5028434;28;20460;-45
2021/08/01 10:07:10;;;;;;;4.20;3.53;;;24.50;59.10;;;;;;5025389;28;20429;-44
2021/08/01 10:09:37;;;;;;;4.80;3.90;;;24.40;58.60;;;;;;5026647;28;20436;-44
2021/08/01 10:12:04;;;;;;;3.57;3.27;;;24.30;59.30;;;;;;5029586;28;20444;-44
2021/08/01 10:14:30;;;;;;;3.63;3.33;;;24.40;59.10;;;;;;5028121;28;20459;-44
2021/08/01 10:16:57;;;;;;;2.43;2.23;;;24.40;59.10;;;;;;5029822;28;20439;-44
2021/08/01 10:19:23;;;;;;;2.90;2.73;;;24.50;57.80;;;;;;5034757;28;20459;-44
2021/08/01 10:21:50;;;;;;;3.40;2.60;;;24.40;57.70;;;;;;5028426;28;20536;-45
2021/08/01 10:24:22;;;;;;;3.90;2.77;;;24.50;57.90;;;;;;5016017;28;20445;-45
2021/08/01 10:26:52;;;;;;;3.43;2.70;;;24.50;57.50;;;;;;5028946;28;20437;-46
2021/08/01 10:29:34;;;;;;;3.17;2.97;;;24.50;57.80;;;;;;5029921;28;20444;-48
2021/08/01 10:32:09;;;;;;;3.97;3.30;;;24.50;58.20;;;;;;5028553;28;20427;-45
2021/08/01 10:35:06;;;;;;;4.20;3.10;;;24.30;58.90;;;;;;5029529;28;20455;-45
2021/08/01 10:37:37;;;;;;;4.07;3.30;;;24.40;59.30;;;;;;5013672;28;20444;-45
2021/08/01 10:40:04;;;;;;;3.80;3.40;;;24.30;59.10;;;;;;5030329;28;20832;-45
2021/08/01 10:42:31;;;;;;;3.70;2.83;;;24.30;59.20;;;;;;5026103;28;20861;-45
2021/08/01 10:44:58;;;;;;;5.00;3.63;;;24.30;59.80;;;;;;5022121;28;20478;-46
2021/08/01 10:47:24;;;;;;;3.57;3.27;;;24.40;59.80;;;;;;5033320;28;20872;-45
2021/08/01 10:49:50;;;;;;;3.17;2.90;;;24.40;59.50;;;;;;5033893;28;20443;-46
2021/08/01 10:52:18;;;;;;;7.00;3.27;;;24.40;59.40;;;;;;5031314;28;20470;-46
2021/08/01 10:55:04;;;;;;;2.97;2.77;;;24.40;59.00;;;;;;5032963;28;20883;-46
2021/08/01 10:57:31;;;;;;;2.90;2.70;;;24.40;59.20;;;;;;5033444;28;20435;-45
2021/08/01 11:00:04;;;;;;;3.43;2.67;;;24.50;58.80;;;;;;5033975;28;20435;-46
2021/08/01 11:02:31;;;;;;;4.07;3.63;;;24.50;59.50;;;;;;5032183;28;20471;-46
2021/08/01 11:04:57;;;;;;;4.13;3.73;;;24.30;59.20;;;;;;5032789;28;20498;-45
2021/08/01 11:07:26;;;;;;;4.53;3.47;;;24.50;59.40;;;;;;5033170;28;20506;-47
2021/08/01 11:10:13;;;;;;;3.97;3.20;;;24.60;59.00;;;;;;5029492;28;20498;-50
2021/08/01 11:12:42;;;;;;;6.33;3.80;;;24.80;59.00;;;;;;5024119;28;20447;-46
2021/08/01 11:15:15;;;;;;;3.40;3.10;;;25.20;58.30;;;;;;5032948;28;20529;-46
2021/08/01 11:17:42;;;;;;;3.10;2.83;;;25.30;57.40;;;;;;5032335;28;20594;-45
2021/08/01 11:20:28;;;;;;;4.13;3.73;;;25.20;57.90;;;;;;5043959;28;20475;-46
2021/08/01 11:22:54;;;;;;;5.20;3.30;;;25.40;56.30;;;;;;5028540;28;20440;-45
2021/08/01 11:25:34;;;;;;;3.37;3.10;;;25.30;57.30;;;;;;5031412;28;20526;-46
2021/08/01 11:28:12;;;;;;;2.90;2.70;;;25.10;57.40;;;;;;5033150;28;20440;-45
2021/08/01 11:30:50;;;;;;;3.10;2.80;;;25.20;57.90;;;;;;5033056;28;20451;-45
2021/08/01 11:33:39;;;;;;;3.23;2.93;;;25.40;57.70;;;;;;5036771;28;20442;-45
2021/08/01 11:36:15;;;;;;;3.80;3.50;;;25.60;57.10;;;;;;5026558;28;20466;-46
2021/08/01 11:38:56;;;;;;;2.90;2.70;;;25.70;55.00;;;;;;5031480;28;20982;-47
2021/08/01 11:41:27;;;;;;;2.87;2.50;;;25.70;56.20;;;;;;5030063;28;20545;-44
2021/08/01 11:43:59;;;;;;;3.20;2.87;;;25.70;56.50;;;;;;5031000;28;21092;-44
2021/08/01 11:46:26;;;;;;;5.30;3.73;;;25.80;55.60;;;;;;5030252;28;20909;-45
2021/08/01 11:49:03;;;;;;;3.90;3.60;;;25.90;55.90;;;;;;5031243;28;20434;-48
2021/08/01 11:51:31;;;;;;;5.23;3.57;;;26.10;55.40;;;;;;5027284;28;20466;-46
2021/08/01 11:53:57;;;;;;;3.63;3.30;;;26.00;55.70;;;;;;5032388;28;20970;-46
2021/08/01 11:56:26;;;;;;;3.63;3.20;;;25.90;54.70;;;;;;5032435;28;20439;-45
2021/08/01 11:58:55;;;;;;;5.03;3.43;;;26.00;55.20;;;;;;5030284;28;20224;-45
2021/08/01 12:01:22;;;;;;;3.07;2.87;;;26.20;53.70;;;;;;5027885;28;20491;-45
2021/08/01 12:03:51;;;;;;;3.00;2.70;;;26.20;55.60;;;;;;5028765;28;20459;-46
2021/08/01 12:06:37;;;;;;;3.57;3.13;;;26.20;53.80;;;;;;5029608;28;20449;-45
2021/08/01 12:09:14;;;;;;;4.10;3.10;;;26.30;53.30;;;;;;5027816;28;20440;-46
2021/08/01 12:11:40;;;;;;;4.07;3.70;;;26.40;54.00;;;;;;5022888;28;20841;-46
2021/08/01 12:14:09;;;;;;;4.60;2.93;;;26.50;53.30;;;;;;5029138;28;20527;-46
2021/08/01 12:16:35;;;;;;;4.53;2.90;;;26.60;53.00;;;;;;5032040;28;20240;-49
2021/08/01 12:19:13;;;;;;;3.67;3.37;;;26.40;54.10;;;;;;5037938;28;20479;-46
2021/08/01 12:21:39;;;;;;;3.23;2.90;;;26.20;53.20;;;;;;5028307;28;20263;-46
2021/08/01 12:24:25;;;;;;;5.10;3.73;;;26.40;52.70;;;;;;5034170;28;20440;-46
2021/08/01 12:26:50;;;;;;;3.67;3.30;;;26.40;52.30;;;;;;5030998;28;20200;-46
2021/08/01 12:29:33;;;;;;;3.47;3.17;;;26.60;53.90;;;;;;5026720;28;20749;-46
2021/08/01 12:32:00;;;;;;;3.50;3.20;;;26.70;52.50;;;;;;5033932;28;20193;-45
2021/08/01 12:34:26;;;;;;;4.10;3.27;;;26.50;51.90;;;;;;5025447;28;20502;-46
2021/08/01 12:36:52;;;;;;;4.87;3.60;;;26.70;51.40;;;;;;5030314;28;20519;-46
2021/08/01 12:39:18;;;;;;;3.57;3.00;;;26.80;52.10;;;;;;5033313;28;20535;-48
2021/08/01 12:41:50;;;;;;;3.40;3.07;;;26.90;50.80;;;;;;5025434;28;20225;-46
2021/08/01 12:44:18;;;;;;;5.37;3.40;;;27.00;51.00;;;;;;5026922;28;20792;-46
2021/08/01 12:46:45;;;;;;;2.97;2.77;;;27.00;50.00;;;;;;5029744;28;20883;-47
2021/08/01 12:49:11;;;;;;;3.53;3.23;;;27.10;49.80;;;;;;5030616;28;20436;-46
2021/08/01 12:51:41;;;;;;;4.50;3.17;;;26.90;49.20;;;;;;5030651;28;21229;-46